createdAt,value
2023-04-06T00:01:25.019Z,0.62
2023-04-06T00:03:53.348Z,0.57
2023-04-06T00:06:21.675Z,0.50
2023-04-06T00:08:50.784Z,0.44
2023-04-06T00:11:19.540Z,0.45
2023-04-06T00:13:50.535Z,0.43
2023-04-06T00:16:22.403Z,0.37
2023-04-06T00:18:52.381Z,0.37
2023-04-06T00:21:23.391Z,0.38
2023-04-06T00:23:52.049Z,0.47
2023-04-06T00:26:23.373Z,0.50
2023-04-06T00:28:53.758Z,0.56
2023-04-06T00:31:25.768Z,0.63
2023-04-06T00:33:55.122Z,0.71
2023-04-06T00:36:23.514Z,0.76
2023-04-06T00:38:52.840Z,0.76
2023-04-06T00:41:21.725Z,0.75
2023-04-06T00:43:50.210Z,0.72
2023-04-06T00:46:18.864Z,0.71
2023-04-06T00:48:51.731Z,0.66
2023-04-06T00:51:22.475Z,0.73
2023-04-06T00:53:50.783Z,0.70
2023-04-06T00:56:22.239Z,0.63
2023-04-06T00:58:56.971Z,0.62
2023-04-06T01:01:29.711Z,0.76
2023-04-06T01:04:03.887Z,0.80
2023-04-06T01:06:35.445Z,0.83
2023-04-06T01:09:05.008Z,0.67
2023-04-06T01:11:35.366Z,0.54
2023-04-06T01:14:06.679Z,0.46
2023-04-06T01:16:56.408Z,0.35
2023-04-06T01:19:30.782Z,0.22
2023-04-06T01:22:02.892Z,0.14
2023-04-06T01:24:35.465Z,0.08
2023-04-06T01:27:14.181Z,0.01
2023-04-06T01:30:05.214Z,-0.07
2023-04-06T01:32:46.042Z,-0.13
2023-04-06T01:35:20.556Z,-0.23
2023-04-06T01:38:01.266Z,-0.32
2023-04-06T01:40:39.627Z,-0.30
2023-04-06T01:43:09.014Z,-0.14
2023-04-06T01:45:47.355Z,-0.15
2023-04-06T01:48:21.118Z,-0.25
2023-04-06T01:50:50.138Z,-0.24
2023-04-06T01:53:26.955Z,-0.31
2023-04-06T01:56:03.480Z,-0.40
2023-04-06T01:58:38.037Z,-0.47
2023-04-06T02:01:06.763Z,-0.49
2023-04-06T02:03:48.375Z,-0.34
2023-04-06T02:06:17.109Z,-0.35
2023-04-06T02:08:46.601Z,-0.35
2023-04-06T02:11:21.966Z,-0.40
2023-04-06T02:14:01.373Z,-0.38
2023-04-06T02:16:33.568Z,-0.45
2023-04-06T02:19:02.182Z,-0.51
2023-04-06T02:21:30.826Z,-0.56
2023-04-06T02:24:00.540Z,-0.59
2023-04-06T02:26:31.387Z,-0.64
2023-04-06T02:28:59.686Z,-0.59
2023-04-06T02:31:29.378Z,-0.52
2023-04-06T02:33:57.935Z,-0.58
2023-04-06T02:36:27.091Z,-0.66
2023-04-06T02:38:58.401Z,-0.69
2023-04-06T02:41:28.005Z,-0.76
2023-04-06T02:43:59.394Z,-0.81
2023-04-06T02:46:40.252Z,-0.88
2023-04-06T02:49:08.886Z,-1.00
2023-04-06T02:51:38.152Z,-1.03
2023-04-06T02:54:27.165Z,-1.12
2023-04-06T02:56:56.039Z,-1.16
2023-04-06T02:59:30.811Z,-1.18
2023-04-06T03:02:10.331Z,-1.14
2023-04-06T03:04:39.458Z,-1.17
2023-04-06T03:07:26.311Z,-1.21
2023-04-06T03:09:54.945Z,-1.18
2023-04-06T03:12:23.614Z,-1.22
2023-04-06T03:15:19.545Z,-1.24
2023-04-06T03:17:53.060Z,-1.23
2023-04-06T03:20:34.933Z,-1.24
2023-04-06T03:23:04.437Z,-1.25
2023-04-06T03:25:37.320Z,-1.30
2023-04-06T03:28:08.719Z,-1.31
2023-04-06T03:30:45.816Z,-1.33
2023-04-06T03:33:16.397Z,-1.37
2023-04-06T03:35:55.136Z,-1.42
2023-04-06T03:38:27.868Z,-1.47
2023-04-06T03:40:57.866Z,-1.50
2023-04-06T03:43:29.035Z,-1.49
2023-04-06T03:45:58.803Z,-1.53
2023-04-06T03:48:27.745Z,-1.58
2023-04-06T03:50:56.096Z,-1.56
2023-04-06T03:53:25.391Z,-1.53
2023-04-06T03:55:53.669Z,-1.50
2023-04-06T03:58:23.941Z,-1.50
2023-04-06T04:00:54.584Z,-1.48
2023-04-06T04:03:28.118Z,-1.50
2023-04-06T04:05:57.434Z,-1.54
2023-04-06T04:08:28.708Z,-1.59
2023-04-06T04:10:59.186Z,-1.65
2023-04-06T04:13:28.236Z,-1.69
2023-04-06T04:16:01.325Z,-1.73
2023-04-06T04:18:33.394Z,-1.77
2023-04-06T04:21:01.934Z,-1.73
2023-04-06T04:23:31.673Z,-1.73
2023-04-06T04:26:00.936Z,-1.77
2023-04-06T04:28:29.211Z,-1.79
2023-04-06T04:30:58.442Z,-1.76
2023-04-06T04:33:27.640Z,-1.80
2023-04-06T04:36:00.249Z,-1.79
2023-04-06T04:38:35.498Z,-1.79
2023-04-06T04:41:06.179Z,-1.80
2023-04-06T04:43:37.304Z,-1.83
2023-04-06T04:46:08.900Z,-1.85
2023-04-06T04:48:43.205Z,-1.83
2023-04-06T04:51:17.764Z,-1.85
2023-04-06T04:54:09.468Z,-1.87
2023-04-06T04:56:40.135Z,-1.89
2023-04-06T04:59:24.187Z,-1.83
2023-04-06T05:02:02.944Z,-1.79
2023-04-06T05:04:46.395Z,-1.78
2023-04-06T05:07:22.249Z,-1.78
2023-04-06T05:09:56.675Z,-1.76
2023-04-06T05:12:29.242Z,-1.77
2023-04-06T05:15:09.673Z,-1.73
2023-04-06T05:17:40.117Z,-1.64
2023-04-06T05:20:10.839Z,-1.50
2023-04-06T05:22:48.143Z,-1.48
2023-04-06T05:25:18.122Z,-1.43
2023-04-06T05:27:48.660Z,-1.39
2023-04-06T05:30:30.632Z,-1.31
2023-04-06T05:33:00.955Z,-1.23
2023-04-06T05:35:38.973Z,-1.17
2023-04-06T05:38:13.760Z,-1.09
2023-04-06T05:40:42.591Z,-1.01
2023-04-06T05:43:15.861Z,-0.82
2023-04-06T05:45:47.729Z,-0.67
2023-04-06T05:48:16.692Z,-0.50
2023-04-06T05:50:49.576Z,-0.41
2023-04-06T05:53:27.642Z,-0.30
2023-04-06T05:55:59.491Z,-0.17
2023-04-06T05:58:28.188Z,-0.04
2023-04-06T06:00:59.909Z,0.10
2023-04-06T06:03:31.997Z,0.25
2023-04-06T06:06:05.152Z,0.45
2023-04-06T06:09:02.100Z,0.68
2023-04-06T06:11:34.035Z,0.86
2023-04-06T06:14:03.693Z,1.08
2023-04-06T06:16:36.388Z,1.28
2023-04-06T06:19:05.526Z,1.46
2023-04-06T06:21:34.801Z,1.69
2023-04-06T06:24:09.139Z,1.87
2023-04-06T06:26:38.838Z,2.10
2023-04-06T06:29:09.685Z,2.29
2023-04-06T06:31:41.115Z,2.49
2023-04-06T06:34:12.334Z,2.66
2023-04-06T06:36:41.988Z,2.92
2023-04-06T06:39:14.264Z,3.26
2023-04-06T06:41:42.853Z,3.36
2023-04-06T06:44:11.993Z,3.41
2023-04-06T06:46:41.155Z,3.77
2023-04-06T06:49:12.143Z,3.90
2023-04-06T06:51:40.836Z,4.32
2023-04-06T06:54:09.835Z,4.55
2023-04-06T06:56:40.558Z,4.81
2023-04-06T06:59:12.481Z,5.17
2023-04-06T07:01:41.288Z,5.43
2023-04-06T07:04:12.782Z,5.71
2023-04-06T07:06:41.461Z,5.79
2023-04-06T07:09:09.955Z,6.19
2023-04-06T07:11:39.846Z,6.53
2023-04-06T07:14:08.966Z,6.34
2023-04-06T07:16:38.003Z,6.62
2023-04-06T07:19:06.901Z,6.98
2023-04-06T07:21:37.615Z,7.14
2023-04-06T07:24:06.238Z,7.35
2023-04-06T07:26:34.718Z,7.06
2023-04-06T07:29:05.712Z,7.32
2023-04-06T07:31:34.544Z,7.21
2023-04-06T07:34:06.782Z,7.47
2023-04-06T07:36:36.573Z,7.79
2023-04-06T07:39:05.124Z,7.91
2023-04-06T07:41:33.572Z,7.91
2023-04-06T07:44:03.352Z,8.00
2023-04-06T07:46:33.422Z,8.18
2023-04-06T07:49:03.100Z,8.41
2023-04-06T07:51:35.146Z,8.30
2023-04-06T07:54:03.659Z,8.62
2023-04-06T07:56:32.372Z,8.66
2023-04-06T07:59:00.993Z,8.68
2023-04-06T08:01:30.507Z,8.51
2023-04-06T08:04:03.588Z,8.91
2023-04-06T08:06:32.373Z,8.68
2023-04-06T08:09:01.427Z,8.98
2023-04-06T08:11:29.745Z,8.82
2023-04-06T08:13:59.057Z,9.10
2023-04-06T08:16:27.687Z,9.10
2023-04-06T08:18:56.065Z,9.64
2023-04-06T08:21:26.738Z,10.04
2023-04-06T08:23:55.858Z,9.83
2023-04-06T08:26:26.442Z,10.15
2023-04-06T08:28:56.608Z,10.28
2023-04-06T08:31:25.907Z,10.21
2023-04-06T08:33:56.149Z,10.23
2023-04-06T08:36:25.912Z,10.53
2023-04-06T08:38:54.880Z,10.82
2023-04-06T08:41:23.159Z,10.69
2023-04-06T08:44:00.514Z,10.43
2023-04-06T08:46:32.521Z,10.76
2023-04-06T08:49:04.124Z,10.91
2023-04-06T08:51:37.528Z,11.01
2023-04-06T08:54:07.386Z,10.95
2023-04-06T08:56:40.437Z,11.01
2023-04-06T08:59:11.768Z,10.75
2023-04-06T09:01:43.546Z,10.49
2023-04-06T09:04:13.938Z,10.71
2023-04-06T09:06:43.985Z,11.16
2023-04-06T09:09:12.971Z,11.46
2023-04-06T09:11:46.626Z,12.05
2023-04-06T09:14:16.076Z,12.60
2023-04-06T09:16:48.194Z,12.67
2023-04-06T09:19:18.170Z,12.82
2023-04-06T09:21:48.327Z,12.46
2023-04-06T09:24:19.487Z,13.11
2023-04-06T09:26:49.081Z,13.42
2023-04-06T09:29:27.581Z,12.65
2023-04-06T09:32:05.253Z,13.10
2023-04-06T09:34:33.953Z,13.58
2023-04-06T09:37:14.459Z,13.84
2023-04-06T09:39:43.652Z,13.35
2023-04-06T09:42:14.572Z,13.72
2023-04-06T09:44:43.399Z,13.79
2023-04-06T09:47:12.179Z,14.41
2023-04-06T09:49:42.452Z,14.50
2023-04-06T09:52:14.593Z,14.33
2023-04-06T09:54:45.729Z,13.68
2023-04-06T09:57:27.426Z,14.04
2023-04-06T10:00:09.204Z,13.10
2023-04-06T10:02:48.130Z,13.83
2023-04-06T10:05:22.554Z,13.97
2023-04-06T10:08:00.185Z,14.24
2023-04-06T10:10:33.157Z,14.01
2023-04-06T10:13:03.767Z,14.28
2023-04-06T10:15:33.245Z,14.17
2023-04-06T10:18:02.601Z,14.55
2023-04-06T10:20:38.072Z,15.31
2023-04-06T10:23:15.226Z,15.26
2023-04-06T10:25:54.467Z,15.17
2023-04-06T10:28:23.236Z,14.62
2023-04-06T10:30:51.878Z,15.01
2023-04-06T10:33:22.233Z,15.30
2023-04-06T10:35:52.089Z,15.20
2023-04-06T10:38:23.044Z,14.72
2023-04-06T10:40:51.648Z,14.46
2023-04-06T10:43:21.940Z,14.80
2023-04-06T10:45:58.119Z,15.38
2023-04-06T10:48:27.918Z,14.97
2023-04-06T10:50:56.466Z,15.65
2023-04-06T10:53:27.562Z,14.85
2023-04-06T10:55:58.845Z,14.90
2023-04-06T10:58:28.641Z,15.05
2023-04-06T11:00:58.311Z,15.90
2023-04-06T11:03:27.783Z,16.35
2023-04-06T11:05:57.543Z,16.47
2023-04-06T11:08:31.138Z,15.93
2023-04-06T11:11:07.714Z,15.83
2023-04-06T11:13:41.350Z,16.48
2023-04-06T11:16:14.602Z,16.66
2023-04-06T11:18:54.313Z,15.44
2023-04-06T11:21:23.011Z,16.15
2023-04-06T11:23:52.860Z,15.03
2023-04-06T11:26:22.744Z,14.37
2023-04-06T11:28:51.492Z,14.82
2023-04-06T11:31:20.077Z,14.82
2023-04-06T11:33:57.305Z,15.13
2023-04-06T11:36:26.215Z,15.77
2023-04-06T11:38:56.102Z,15.48
2023-04-06T11:41:26.341Z,15.51
2023-04-06T11:43:58.114Z,15.29
2023-04-06T11:46:28.441Z,15.25
2023-04-06T11:49:01.285Z,15.34
2023-04-06T11:51:30.516Z,15.48
2023-04-06T11:54:00.450Z,15.43
2023-04-06T11:56:30.158Z,15.47
2023-04-06T11:59:00.884Z,15.57
2023-04-06T12:01:32.083Z,16.05
2023-04-06T12:04:03.675Z,17.32
2023-04-06T12:06:34.470Z,16.41
2023-04-06T12:09:04.673Z,15.83
2023-04-06T12:11:35.210Z,15.57
2023-04-06T12:14:06.109Z,15.92
2023-04-06T12:16:35.344Z,15.88
2023-04-06T12:19:04.056Z,15.95
2023-04-06T12:21:37.318Z,15.59
2023-04-06T12:24:07.358Z,15.50
2023-04-06T12:26:35.858Z,15.24
2023-04-06T12:29:07.972Z,14.64
2023-04-06T12:31:37.887Z,15.40
2023-04-06T12:34:09.168Z,15.57
2023-04-06T12:36:39.225Z,15.76
2023-04-06T12:39:09.271Z,16.36
2023-04-06T12:41:37.678Z,16.02
2023-04-06T12:44:06.064Z,15.57
2023-04-06T12:46:36.198Z,15.18
2023-04-06T12:49:04.638Z,15.81
2023-04-06T12:51:34.299Z,15.98
2023-04-06T12:54:02.799Z,15.76
2023-04-06T12:56:33.659Z,16.27
2023-04-06T12:59:04.919Z,16.15
2023-04-06T13:01:34.251Z,15.64
2023-04-06T13:04:02.828Z,16.03
2023-04-06T13:06:32.558Z,16.31
2023-04-06T13:09:01.198Z,15.57
2023-04-06T13:11:30.549Z,15.18
2023-04-06T13:14:00.999Z,14.97
2023-04-06T13:16:30.759Z,14.64
2023-04-06T13:18:59.707Z,14.62
2023-04-06T13:21:28.512Z,15.10
2023-04-06T13:23:57.992Z,15.02
2023-04-06T13:26:26.880Z,15.43
2023-04-06T13:28:57.190Z,16.34
2023-04-06T13:31:27.434Z,16.16
2023-04-06T13:33:55.795Z,15.99
2023-04-06T13:36:24.563Z,15.91
2023-04-06T13:38:56.438Z,15.54
2023-04-06T13:41:27.509Z,15.17
2023-04-06T13:43:56.014Z,15.36
2023-04-06T13:46:25.202Z,14.81
2023-04-06T13:48:55.748Z,14.61
2023-04-06T13:51:24.474Z,14.99
2023-04-06T13:53:54.562Z,15.51
2023-04-06T13:56:22.878Z,15.81
2023-04-06T13:58:51.089Z,15.84
2023-04-06T14:01:19.440Z,15.71
2023-04-06T14:03:49.014Z,15.56
2023-04-06T14:06:30.464Z,15.88
2023-04-06T14:09:00.605Z,15.16
2023-04-06T14:11:28.944Z,14.96
2023-04-06T14:13:58.706Z,14.95
2023-04-06T14:16:27.453Z,14.40
2023-04-06T14:18:56.530Z,14.72
2023-04-06T14:21:27.669Z,14.51
2023-04-06T14:23:57.988Z,14.89
2023-04-06T14:26:28.623Z,14.97
2023-04-06T14:28:56.955Z,14.55
2023-04-06T14:31:25.826Z,14.28
2023-04-06T14:33:55.562Z,13.95
2023-04-06T14:36:24.190Z,14.10
2023-04-06T14:38:54.293Z,14.29
2023-04-06T14:41:28.420Z,14.17
2023-04-06T14:43:57.657Z,14.43
2023-04-06T14:46:26.545Z,14.98
2023-04-06T14:48:57.000Z,14.89
2023-04-06T14:51:29.433Z,15.19
2023-04-06T14:53:59.822Z,15.11
2023-04-06T14:56:28.519Z,14.52
2023-04-06T14:59:00.071Z,14.71
2023-04-06T15:01:29.702Z,14.88
2023-04-06T15:03:58.145Z,14.59
2023-04-06T15:06:26.620Z,14.63
2023-04-06T15:08:56.176Z,14.60
2023-04-06T15:11:25.805Z,14.91
2023-04-06T15:13:56.536Z,14.70
2023-04-06T15:16:24.883Z,14.58
2023-04-06T15:18:53.235Z,14.49
2023-04-06T15:21:21.538Z,14.19
2023-04-06T15:23:50.498Z,13.77
2023-04-06T15:26:18.698Z,14.04
2023-04-06T15:28:49.380Z,14.16
2023-04-06T15:34:09.546Z,13.98
2023-04-06T15:36:38.258Z,13.57
2023-04-06T15:39:09.666Z,13.78
2023-04-06T15:41:38.091Z,13.83
2023-04-06T15:44:07.738Z,13.69
2023-04-06T15:46:35.968Z,13.49
2023-04-06T15:49:05.347Z,13.72
2023-04-06T15:51:34.090Z,13.39
2023-04-06T15:54:03.634Z,13.47
2023-04-06T15:56:33.412Z,13.43
2023-04-06T15:59:02.359Z,13.48
2023-04-06T16:01:32.324Z,13.61
2023-04-06T16:04:00.956Z,13.48
2023-04-06T16:06:29.173Z,13.28
2023-04-06T16:08:57.312Z,13.22
2023-04-06T16:11:26.143Z,13.01
2023-04-06T16:13:55.721Z,13.03
2023-04-06T16:16:25.539Z,12.85
2023-04-06T16:18:56.381Z,12.91
2023-04-06T16:21:26.764Z,12.87
2023-04-06T16:23:56.116Z,12.83
2023-04-06T16:26:27.109Z,12.90
2023-04-06T16:28:55.637Z,12.83
2023-04-06T16:31:25.665Z,12.86
2023-04-06T16:33:56.919Z,12.81
2023-04-06T16:36:25.466Z,12.65
2023-04-06T16:38:54.290Z,12.63
2023-04-06T16:41:22.989Z,12.56
2023-04-06T16:43:52.046Z,12.53
2023-04-06T16:46:21.537Z,12.41
2023-04-06T16:48:50.067Z,12.37
2023-04-06T16:51:19.676Z,12.26
2023-04-06T16:53:49.539Z,12.29
2023-04-06T16:56:17.967Z,12.18
2023-04-06T16:58:46.627Z,12.06
2023-04-06T17:01:22.372Z,11.96
2023-04-06T17:03:51.235Z,11.93
2023-04-06T17:06:21.620Z,11.97
2023-04-06T17:08:53.589Z,11.74
2023-04-06T17:11:28.166Z,11.70
2023-04-06T17:14:01.146Z,11.55
2023-04-06T17:16:29.689Z,11.57
2023-04-06T17:18:58.388Z,11.59
2023-04-06T17:21:28.672Z,11.61
2023-04-06T17:23:57.148Z,11.65
2023-04-06T17:26:25.536Z,11.51
2023-04-06T17:28:54.073Z,11.50
2023-04-06T17:31:22.537Z,11.37
2023-04-06T17:33:51.021Z,11.33
2023-04-06T17:36:20.645Z,11.29
2023-04-06T17:38:52.432Z,11.25
2023-04-06T17:41:21.512Z,11.22
2023-04-06T17:43:51.593Z,11.17
2023-04-06T17:46:25.449Z,11.10
2023-04-06T17:48:53.602Z,10.98
2023-04-06T17:51:21.925Z,10.88
2023-04-06T17:53:50.565Z,10.80
2023-04-06T17:56:21.743Z,10.79
2023-04-06T18:01:19.329Z,10.71
2023-04-06T18:03:47.464Z,10.60
2023-04-06T18:06:17.611Z,10.61
2023-04-06T18:08:46.077Z,10.57
2023-04-06T18:11:18.582Z,10.61
2023-04-06T18:13:49.597Z,10.64
2023-04-06T18:16:20.152Z,10.53
2023-04-06T18:18:48.974Z,10.38
2023-04-06T18:21:17.105Z,10.38
2023-04-06T18:23:45.522Z,10.37
2023-04-06T18:26:18.553Z,10.40
2023-04-06T18:28:49.671Z,10.37
2023-04-06T18:31:18.395Z,10.05
2023-04-06T18:33:46.915Z,9.97
2023-04-06T18:36:15.708Z,10.13
2023-04-06T18:38:45.584Z,9.95
2023-04-06T18:41:13.872Z,9.82
2023-04-06T18:43:42.156Z,9.85
2023-04-06T18:46:15.699Z,9.86
2023-04-06T18:48:44.752Z,9.93
2023-04-06T18:51:13.150Z,10.00
2023-04-06T18:53:42.288Z,9.89
2023-04-06T18:56:18.766Z,9.83
2023-04-06T18:58:48.659Z,9.62
2023-04-06T19:01:27.112Z,9.45
2023-04-06T19:03:57.067Z,9.37
2023-04-06T19:06:27.923Z,9.30
2023-04-06T19:08:56.874Z,9.24
2023-04-06T19:11:26.138Z,9.12
2023-04-06T19:13:55.173Z,9.02
2023-04-06T19:16:26.421Z,8.88
2023-04-06T19:18:54.737Z,8.78
2023-04-06T19:21:27.138Z,8.72
2023-04-06T19:23:56.506Z,8.59
2023-04-06T19:26:27.909Z,8.45
2023-04-06T19:28:58.740Z,8.31
2023-04-06T19:31:30.631Z,8.24
2023-04-06T19:33:58.855Z,8.24
2023-04-06T19:36:28.252Z,8.18
2023-04-06T19:38:56.470Z,8.06
2023-04-06T19:41:25.816Z,8.07
2023-04-06T19:43:54.172Z,7.89
2023-04-06T19:46:23.024Z,7.84
2023-04-06T19:48:52.702Z,7.82
2023-04-06T19:51:21.122Z,7.82
2023-04-06T19:53:49.222Z,7.77
2023-04-06T19:56:17.755Z,7.90
2023-04-06T19:58:45.850Z,7.75
2023-04-06T20:01:14.153Z,7.61
2023-04-06T20:03:43.812Z,7.60
2023-04-06T20:06:13.449Z,7.56
2023-04-06T20:08:41.935Z,7.50
2023-04-06T20:11:11.186Z,7.48
2023-04-06T20:13:40.125Z,7.46
2023-04-06T20:16:08.424Z,7.43
2023-04-06T20:18:37.379Z,7.40
2023-04-06T20:21:06.092Z,7.30
2023-04-06T20:23:37.483Z,7.28
2023-04-06T20:26:09.190Z,7.23
2023-04-06T20:28:39.301Z,7.15
2023-04-06T20:31:08.340Z,7.11
2023-04-06T20:33:37.240Z,7.13
2023-04-06T20:36:05.864Z,7.07
2023-04-06T20:38:36.249Z,7.05
2023-04-06T20:41:04.901Z,7.11
2023-04-06T20:43:33.257Z,7.08
2023-04-06T20:46:02.851Z,7.08
2023-04-06T20:48:33.681Z,7.06
2023-04-06T20:51:03.351Z,6.98
2023-04-06T20:53:32.033Z,6.97
2023-04-06T20:56:02.396Z,7.00
2023-04-06T20:58:30.671Z,7.06
2023-04-06T21:01:03.615Z,7.01
2023-04-06T21:03:32.200Z,6.97
2023-04-06T21:06:14.296Z,6.95
2023-04-06T21:08:42.609Z,6.85
2023-04-06T21:11:12.420Z,6.83
2023-04-06T21:13:49.846Z,6.85
2023-04-06T21:16:22.804Z,6.84
2023-04-06T21:18:52.784Z,6.78
2023-04-06T21:21:21.166Z,6.81
2023-04-06T21:23:52.837Z,6.80
2023-04-06T21:26:32.231Z,6.81
2023-04-06T21:29:04.937Z,6.84
2023-04-06T21:31:36.833Z,6.77
2023-04-06T21:34:14.693Z,6.76
2023-04-06T21:36:50.968Z,6.72
2023-04-06T21:39:19.177Z,6.72
2023-04-06T21:41:48.865Z,6.69
2023-04-06T21:44:17.333Z,6.65
2023-04-06T21:46:48.542Z,6.71
2023-04-06T21:49:18.332Z,6.73
2023-04-06T21:51:48.796Z,6.71
2023-04-06T21:54:17.582Z,6.70
2023-04-06T21:56:48.328Z,6.71
2023-04-06T21:59:18.406Z,6.63
2023-04-06T22:01:46.964Z,6.69
2023-04-06T22:04:16.389Z,6.68
2023-04-06T22:06:45.117Z,6.70
2023-04-06T22:09:13.704Z,6.67
2023-04-06T22:11:42.422Z,6.60
2023-04-06T22:14:11.398Z,6.59
2023-04-06T22:16:41.291Z,6.60
2023-04-06T22:19:09.495Z,6.61
2023-04-06T22:21:38.096Z,6.62
2023-04-06T22:24:08.448Z,6.57
2023-04-06T22:26:36.609Z,6.57
2023-04-06T22:29:05.628Z,6.63
2023-04-06T22:31:34.596Z,6.63
2023-04-06T22:34:05.188Z,6.64
2023-04-06T22:36:33.624Z,6.56
2023-04-06T22:39:02.416Z,6.52
2023-04-06T22:41:31.041Z,6.53
2023-04-06T22:44:01.526Z,6.53
2023-04-06T22:46:30.679Z,6.53
2023-04-06T22:48:59.768Z,6.58
2023-04-06T22:51:29.485Z,6.59
2023-04-06T22:53:57.887Z,6.55
2023-04-06T22:56:26.112Z,6.48
2023-04-06T22:58:56.889Z,6.51
2023-04-06T23:01:25.663Z,6.46
2023-04-06T23:03:56.604Z,6.45
2023-04-06T23:06:28.386Z,6.43
2023-04-06T23:08:59.554Z,6.41
2023-04-06T23:11:30.902Z,6.38
2023-04-06T23:13:59.375Z,6.42
2023-04-06T23:16:27.814Z,6.41
2023-04-06T23:18:56.197Z,6.39
2023-04-06T23:21:24.358Z,6.43
2023-04-06T23:23:52.962Z,6.44
2023-04-06T23:26:24.386Z,6.40
2023-04-06T23:28:53.050Z,6.38
2023-04-06T23:31:21.354Z,6.38
2023-04-06T23:33:49.694Z,6.36
2023-04-06T23:36:17.996Z,6.33
2023-04-06T23:38:46.254Z,6.35
2023-04-06T23:41:16.091Z,6.36
2023-04-06T23:43:48.250Z,6.37
2023-04-06T23:46:18.177Z,6.36
2023-04-06T23:48:47.164Z,6.36
2023-04-06T23:51:15.988Z,6.38
2023-04-06T23:53:44.217Z,6.39
2023-04-06T23:56:12.985Z,6.40
2023-04-06T23:58:42.204Z,6.37
